Time,TemperatureF,DewpointF,PressureIn,WindDirection,WindDirectionDegrees,WindSpeedMPH,WindSpeedGustMPH,Humidity,HourlyPrecipIn,Conditions,Clouds,dailyrainin,SoftwareType,DateUTC
2013-07-01 00:00:00,72.7,71.8,29.90,South,172,0.0,8.0,97,0.00,RA,,0.00,WeatherDisplay:10.37,2013-07-01 04:00:00,
2013-07-01 00:10:00,72.7,71.8,29.90,South,183,5.0,6.0,97,0.00,OVC,,0.00,WeatherDisplay:10.37,2013-07-01 04:10:00,
2013-07-01 00:20:00,72.6,71.7,29.90,South,188,0.0,4.0,97,0.00,OVC,,0.00,WeatherDisplay:10.37,2013-07-01 04:20:00,
2013-07-01 00:30:00,72.7,72.1,29.90,South,188,0.0,2.0,98,0.00,OVC,,0.00,WeatherDisplay:10.37,2013-07-01 04:30:00,
2013-07-01 00:40:00,72.7,72.1,29.90,South,188,0.0,0.0,98,0.00,OVC,,0.00,WeatherDisplay:10.37,2013-07-01 04:40:00,
2013-07-01 00:50:00,72.7,72.1,29.91,South,188,0.0,1.0,98,0.00,OVC,,0.00,WeatherDisplay:10.37,2013-07-01 04:50:00,
2013-07-01 01:00:00,72.7,72.1,29.91,South,188,0.0,2.0,98,0.00,OVC,,0.00,WeatherDisplay:10.37,2013-07-01 05:00:00,
2013-07-01 01:10:00,72.6,72.0,29.91,South,188,0.0,3.0,98,0.00,OVC,,0.00,WeatherDisplay:10.37,2013-07-01 05:10:00,
2013-07-01 01:20:00,72.6,72.0,29.91,South,188,0.0,0.0,98,0.00,OVC,,0.00,WeatherDisplay:10.37,2013-07-01 05:20:00,
2013-07-01 01:30:00,72.6,72.0,29.91,South,188,0.0,1.0,98,0.00,OVC,,0.00,WeatherDisplay:10.37,2013-07-01 05:30:00,
2013-07-01 01:40:00,72.6,72.0,29.90,South,188,0.0,1.0,98,0.00,OVC,,0.00,WeatherDisplay:10.37,2013-07-01 05:40:00,
2013-07-01 01:50:00,72.5,71.9,29.91,South,188,0.0,2.0,98,0.00,OVC,,0.00,WeatherDisplay:10.37,2013-07-01 05:50:00,
2013-07-01 02:00:00,72.5,71.9,29.90,SSE,159,0.0,4.0,98,0.00,OVC,,0.00,WeatherDisplay:10.37,2013-07-01 06:00:00,
2013-07-01 02:10:00,72.4,71.8,29.90,SSE,159,0.0,2.0,98,0.00,OVC,,0.00,WeatherDisplay:10.37,2013-07-01 06:10:00,
2013-07-01 02:20:00,72.5,71.9,29.90,SSE,163,0.0,7.0,98,0.00,OVC,,0.00,WeatherDisplay:10.37,2013-07-01 06:20:00,
2013-07-01 02:30:00,72.5,72.2,29.89,South,180,0.0,3.0,99,0.00,OVC,,0.00,WeatherDisplay:10.37,2013-07-01 06:30:00,
2013-07-01 02:40:00,72.5,72.2,29.89,SE,127,0.0,2.0,99,0.00,OVC,,0.00,WeatherDisplay:10.37,2013-07-01 06:40:00,
2013-07-01 02:50:00,72.5,72.2,29.89,SSE,167,0.0,5.0,99,0.00,OVC,,0.00,WeatherDisplay:10.37,2013-07-01 06:50:00,
2013-07-01 03:00:00,72.5,72.2,29.89,SSE,166,0.0,4.0,99,0.00,OVC,,0.00,WeatherDisplay:10.37,2013-07-01 07:00:00,
2013-07-01 03:10:00,72.6,72.3,29.89,SSE,156,0.0,2.0,99,0.00,OVC,,0.00,WeatherDisplay:10.37,2013-07-01 07:10:00,
2013-07-01 03:20:00,72.6,72.3,29.89,South,181,0.0,4.0,99,0.00,OVC,,0.00,WeatherDisplay:10.37,2013-07-01 07:20:00,
2013-07-01 03:30:00,72.6,72.3,29.89,East,96,0.0,5.0,99,0.00,OVC,,0.00,WeatherDisplay:10.37,2013-07-01 07:30:00,
2013-07-01 03:40:00,72.5,72.2,29.89,SE,128,0.0,4.0,99,0.00,OVC,,0.00,WeatherDisplay:10.37,2013-07-01 07:40:00,
2013-07-01 03:50:00,72.5,72.2,29.89,ESE,115,1.0,5.0,99,0.00,OVC,,0.00,WeatherDisplay:10.37,2013-07-01 07:50:00,
2013-07-01 04:00:00,72.4,72.1,29.89,SSE,150,0.0,5.0,99,0.00,OVC,,0.00,WeatherDisplay:10.37,2013-07-01 08:00:00,
2013-07-01 04:10:00,72.3,72.0,29.89,SE,132,1.0,7.0,99,0.00,OVC,,0.00,WeatherDisplay:10.37,2013-07-01 08:10:00,
2013-07-01 04:20:00,72.2,71.9,29.89,SSE,161,0.0,2.0,99,0.00,OVC,,0.00,WeatherDisplay:10.37,2013-07-01 08:20:00,
2013-07-01 04:30:00,72.2,71.9,29.89,SSE,161,0.0,2.0,99,0.00,OVC,,0.00,WeatherDisplay:10.37,2013-07-01 08:30:00,
2013-07-01 04:40:00,72.1,71.8,29.89,SSE,162,0.0,4.0,99,0.00,OVC,,0.00,WeatherDisplay:10.37,2013-07-01 08:40:00,
2013-07-01 04:50:00,72.2,71.9,29.90,South,183,0.0,3.0,99,0.00,OVC,,0.00,WeatherDisplay:10.37,2013-07-01 08:50:00,
2013-07-01 05:00:00,72.2,71.9,29.90,South,176,0.0,4.0,99,0.00,OVC,,0.00,WeatherDisplay:10.37,2013-07-01 09:00:00,
2013-07-01 05:10:00,72.2,71.9,29.90,South,172,2.0,5.0,99,0.00,OVC,,0.00,WeatherDisplay:10.37,2013-07-01 09:10:00,
2013-07-01 05:20:00,72.2,71.9,29.91,SSE,166,0.0,5.0,99,0.00,OVC,,0.00,WeatherDisplay:10.37,2013-07-01 09:20:00,
2013-07-01 05:30:00,72.2,71.9,29.91,SSE,164,0.0,4.0,99,0.00,OVC,,0.00,WeatherDisplay:10.37,2013-07-01 09:30:00,
2013-07-01 05:40:00,72.2,71.9,29.91,SSE,168,0.0,2.0,99,0.00,OVC,,0.00,WeatherDisplay:10.37,2013-07-01 09:40:00,
2013-07-01 05:50:00,72.2,71.9,29.91,South,169,0.0,2.0,99,0.00,OVC,,0.00,WeatherDisplay:10.37,2013-07-01 09:50:00,
2013-07-01 06:00:00,72.3,72.0,29.91,South,169,0.0,2.0,99,0.00,OVC,,0.00,WeatherDisplay:10.37,2013-07-01 10:00:00,
2013-07-01 06:10:00,72.3,72.0,29.92,SE,140,0.0,4.0,99,0.00,OVC,,0.00,WeatherDisplay:10.37,2013-07-01 10:10:00,
2013-07-01 06:20:00,72.3,72.0,29.92,ESE,108,0.0,4.0,99,0.00,OVC,,0.00,WeatherDisplay:10.37,2013-07-01 10:20:00,
2013-07-01 06:30:00,72.4,72.1,29.92,South,173,0.0,5.0,99,0.00,OVC,,0.00,WeatherDisplay:10.37,2013-07-01 10:30:00,
2013-07-01 06:40:00,72.5,72.2,29.92,SSE,158,0.0,4.0,99,0.00,OVC,,0.00,WeatherDisplay:10.37,2013-07-01 10:40:00,
2013-07-01 06:50:00,72.6,72.3,29.92,ESE,108,1.0,5.0,99,0.00,OVC,,0.00,WeatherDisplay:10.37,2013-07-01 10:50:00,
2013-07-01 07:00:00,72.7,72.4,29.92,SSE,155,1.0,6.0,99,0.00,OVC,,0.00,WeatherDisplay:10.37,2013-07-01 11:00:00,
2013-07-01 07:10:00,72.9,72.3,29.92,South,170,0.0,4.0,98,0.00,OVC,,0.00,WeatherDisplay:10.37,2013-07-01 11:10:00,
2013-07-01 07:19:00,73.0,72.4,29.92,SSE,159,1.0,4.0,98,0.00,OVC,,0.00,WeatherDisplay:10.37,2013-07-01 11:19:00,
2013-07-01 07:29:00,73.1,72.5,29.92,South,172,2.0,7.0,98,0.00,OVC,,0.00,WeatherDisplay:10.37,2013-07-01 11:29:00,
2013-07-01 07:39:00,73.2,72.6,29.92,South,175,0.0,4.0,98,0.00,OVC,,0.00,WeatherDisplay:10.37,2013-07-01 11:39:00,
2013-07-01 07:49:00,73.2,72.6,29.93,South,187,3.0,5.0,98,0.00,OVC,,0.00,WeatherDisplay:10.37,2013-07-01 11:49:00,
2013-07-01 07:59:00,73.2,72.6,29.92,SSE,165,1.0,6.0,98,0.00,OVC,,0.00,WeatherDisplay:10.37,2013-07-01 11:59:00,
2013-07-01 08:09:00,73.3,73.0,29.92,South,181,1.0,6.0,99,0.00,OVC,,0.00,WeatherDisplay:10.37,2013-07-01 12:09:00,
2013-07-01 08:19:00,73.5,73.2,29.93,South,182,1.0,6.0,99,0.00,OVC,,0.00,WeatherDisplay:10.37,2013-07-01 12:19:00,
2013-07-01 08:29:00,73.7,73.1,29.93,South,175,2.0,5.0,98,0.00,OVC,,0.00,WeatherDisplay:10.37,2013-07-01 12:29:00,
2013-07-01 08:39:00,73.8,73.2,29.94,South,187,1.0,6.0,98,0.00,OVC,,0.00,WeatherDisplay:10.37,2013-07-01 12:39:00,
2013-07-01 08:49:00,74.1,73.5,29.94,ESE,117,2.0,8.0,98,0.00,OVC,,0.00,WeatherDisplay:10.37,2013-07-01 12:49:00,
2013-07-01 08:59:00,74.2,73.6,29.94,SSE,165,2.0,7.0,98,0.00,OVC,,0.00,WeatherDisplay:10.37,2013-07-01 12:59:00,
2013-07-01 09:09:00,74.4,73.8,29.94,South,179,0.0,5.0,98,0.00,OVC,,0.00,WeatherDisplay:10.37,2013-07-01 13:09:00,
2013-07-01 09:19:00,74.7,73.8,29.94,South,179,1.0,8.0,97,0.00,OVC,,0.00,WeatherDisplay:10.37,2013-07-01 13:19:00,
2013-07-01 09:29:00,75.3,74.3,29.94,East,89,0.0,5.0,97,0.00,OVC,,0.00,WeatherDisplay:10.37,2013-07-01 13:29:00,
2013-07-01 09:39:00,75.7,74.5,29.93,ESE,106,0.0,5.0,96,0.00,OVC,,0.00,WeatherDisplay:10.37,2013-07-01 13:39:00,
2013-07-01 09:49:00,75.8,74.3,29.93,SSW,192,1.0,6.0,95,0.00,OVC,,0.00,WeatherDisplay:10.37,2013-07-01 13:49:00,
2013-07-01 09:59:00,75.7,74.2,29.92,SSE,148,0.0,4.0,95,0.00,OVC,,0.00,WeatherDisplay:10.37,2013-07-01 13:59:00,
2013-07-01 10:09:00,75.6,74.1,29.93,East,93,1.0,4.0,95,0.00,OVC,,0.00,WeatherDisplay:10.37,2013-07-01 14:09:00,
2013-07-01 10:19:00,75.4,74.2,29.94,NE,43,1.0,3.0,96,0.01,RA,,0.04,WeatherDisplay:10.37,2013-07-01 14:19:00,
2013-07-01 10:29:00,75.0,74.1,29.92,NNW,336,1.0,3.0,97,0.08,RA,,0.64,WeatherDisplay:10.37,2013-07-01 14:29:00,
2013-07-01 10:39:00,74.6,73.7,29.93,NW,318,0.0,3.0,97,0.06,RA,,1.21,WeatherDisplay:10.37,2013-07-01 14:39:00,
2013-07-01 10:49:00,74.0,73.4,29.93,ESE,107,0.0,4.0,98,0.05,RA,,1.70,WeatherDisplay:10.37,2013-07-01 14:49:00,
2013-07-01 10:59:00,73.4,72.8,29.93,ENE,76,1.0,4.0,98,0.00,RA,,1.76,WeatherDisplay:10.37,2013-07-01 14:59:00,
2013-07-01 11:09:00,73.5,73.2,29.95,NW,315,1.0,3.0,99,0.00,RA,,1.77,WeatherDisplay:10.37,2013-07-01 15:09:00,
2013-07-01 11:19:00,72.6,72.0,29.95,NE,44,0.0,4.0,98,0.12,RA,,1.89,WeatherDisplay:10.37,2013-07-01 15:19:00,
2013-07-01 11:29:00,72.2,71.9,29.95,ENE,75,1.0,2.0,99,0.01,RA,,2.03,WeatherDisplay:10.37,2013-07-01 15:29:00,
2013-07-01 11:39:00,72.2,71.9,29.96,ENE,75,0.0,2.0,99,0.01,RA,,2.06,WeatherDisplay:10.37,2013-07-01 15:39:00,
2013-07-01 11:49:00,72.2,71.9,29.96,ENE,66,0.0,2.0,99,0.03,RA,,2.09,WeatherDisplay:10.37,2013-07-01 15:49:00,
2013-07-01 11:59:00,71.8,71.5,29.96,North,360,0.0,2.0,99,0.00,RA,,2.13,WeatherDisplay:10.37,2013-07-01 15:59:00,
2013-07-01 12:09:00,71.5,71.2,29.96,North,360,0.0,1.0,99,0.00,RA,,2.15,WeatherDisplay:10.37,2013-07-01 16:09:00,
2013-07-01 12:19:00,71.7,71.4,29.96,North,360,0.0,2.0,99,0.00,OVC,,2.15,WeatherDisplay:10.37,2013-07-01 16:19:00,
2013-07-01 12:29:00,72.1,72.1,29.96,North,360,0.0,0.0,100,0.00,OVC,,2.15,WeatherDisplay:10.37,2013-07-01 16:29:00,
2013-07-01 12:39:00,72.2,71.9,29.96,North,360,0.0,0.0,99,0.00,OVC,,2.15,WeatherDisplay:10.37,2013-07-01 16:39:00,
2013-07-01 12:49:00,72.7,72.7,29.97,North,360,0.0,1.0,100,0.00,OVC,,2.15,WeatherDisplay:10.37,2013-07-01 16:49:00,
2013-07-01 12:59:00,73.3,73.3,29.97,North,360,0.0,3.0,100,0.00,OVC,,2.15,WeatherDisplay:10.37,2013-07-01 16:59:00,
2013-07-01 13:09:00,73.7,73.7,29.96,South,172,2.0,6.0,100,0.00,OVC,,2.15,WeatherDisplay:10.37,2013-07-01 17:09:00,
2013-07-01 13:19:00,74.1,74.1,29.96,South,171,1.0,7.0,100,0.00,OVC,,2.15,WeatherDisplay:10.37,2013-07-01 17:19:00,
2013-07-01 13:29:00,74.6,74.6,29.97,SSE,149,0.0,5.0,100,0.00,OVC,,2.15,WeatherDisplay:10.37,2013-07-01 17:29:00,
2013-07-01 13:39:00,74.3,74.0,29.96,South,175,2.0,6.0,99,0.00,OVC,,2.15,WeatherDisplay:10.37,2013-07-01 17:39:00,
2013-07-01 13:49:00,74.1,73.8,29.97,South,173,2.0,7.0,99,0.00,OVC,,2.15,WeatherDisplay:10.37,2013-07-01 17:49:00,
2013-07-01 13:59:00,74.0,73.7,29.97,SSE,156,5.0,6.0,99,0.00,OVC,,2.15,WeatherDisplay:10.37,2013-07-01 17:59:00,
2013-07-01 14:09:00,74.3,74.0,29.97,South,175,2.0,7.0,99,0.00,-RA,,2.16,WeatherDisplay:10.37,2013-07-01 18:09:00,
2013-07-01 14:19:00,74.3,74.0,29.97,South,179,1.0,7.0,99,0.00,-RA,,2.16,WeatherDisplay:10.37,2013-07-01 18:19:00,
2013-07-01 14:29:00,74.1,73.8,29.97,South,173,2.0,6.0,99,0.00,-RA,,2.16,WeatherDisplay:10.37,2013-07-01 18:29:00,
2013-07-01 14:39:00,74.0,73.7,29.97,South,187,1.0,6.0,99,0.00,-RA,,2.16,WeatherDisplay:10.37,2013-07-01 18:39:00,
2013-07-01 14:49:00,74.2,73.9,29.97,South,182,2.0,6.0,99,0.00,-RA,,2.16,WeatherDisplay:10.37,2013-07-01 18:49:00,
2013-07-01 14:59:00,74.1,73.8,29.97,South,173,2.0,6.0,99,0.00,-RA,,2.17,WeatherDisplay:10.37,2013-07-01 18:59:00,
2013-07-01 15:09:00,74.0,73.7,29.97,South,189,1.0,6.0,99,0.00,-RA,,2.18,WeatherDisplay:10.37,2013-07-01 19:09:00,
2013-07-01 15:19:00,74.0,73.7,29.96,South,173,0.0,6.0,99,0.02,-RA,,2.20,WeatherDisplay:10.37,2013-07-01 19:19:00,
2013-07-01 15:29:00,74.2,73.9,29.96,South,170,0.0,4.0,99,0.00,-RA,,2.20,WeatherDisplay:10.37,2013-07-01 19:29:00,
2013-07-01 15:39:00,74.4,74.4,29.96,South,191,0.0,5.0,100,0.00,-RA,,2.20,WeatherDisplay:10.37,2013-07-01 19:39:00,
2013-07-01 15:49:00,74.6,74.3,29.96,South,172,3.0,9.0,99,0.00,-RA,,2.20,WeatherDisplay:10.37,2013-07-01 19:49:00,
2013-07-01 15:59:00,74.7,74.7,29.96,SSE,159,2.0,9.0,100,0.00,-RA,,2.20,WeatherDisplay:10.37,2013-07-01 19:59:00,
2013-07-01 16:09:00,74.9,74.9,29.96,SE,138,2.0,6.0,100,0.00,-RA,,2.20,WeatherDisplay:10.37,2013-07-01 20:09:00,
2013-07-01 16:19:00,74.7,74.4,29.96,SSE,157,5.0,7.0,99,0.00,-RA,,2.20,WeatherDisplay:10.37,2013-07-01 20:19:00,
2013-07-01 16:29:00,74.7,74.7,29.96,ESE,120,1.0,7.0,100,0.00,-RA,,2.20,WeatherDisplay:10.37,2013-07-01 20:29:00,
2013-07-01 16:39:00,74.5,74.5,29.96,SSE,160,2.0,6.0,100,0.00,-RA,,2.20,WeatherDisplay:10.37,2013-07-01 20:39:00,
2013-07-01 16:49:00,74.3,74.0,29.96,South,171,5.0,10.0,99,0.00,-RA,,2.21,WeatherDisplay:10.37,2013-07-01 20:49:00,
2013-07-01 16:59:00,74.0,73.7,29.96,South,179,3.0,8.0,99,0.00,-RA,,2.21,WeatherDisplay:10.37,2013-07-01 20:59:00,
2013-07-01 17:09:00,73.9,73.9,29.96,SSE,164,0.0,6.0,100,0.00,-RA,,2.21,WeatherDisplay:10.37,2013-07-01 21:09:00,
2013-07-01 17:19:00,73.9,73.9,29.96,SSE,154,2.0,8.0,100,0.00,-RA,,2.21,WeatherDisplay:10.37,2013-07-01 21:19:00,
2013-07-01 17:29:00,73.9,73.9,29.96,SSE,162,1.0,9.0,100,0.00,-RA,,2.21,WeatherDisplay:10.37,2013-07-01 21:29:00,
2013-07-01 17:39:00,73.9,73.9,29.96,South,180,0.0,10.0,100,0.00,-RA,,2.21,WeatherDisplay:10.37,2013-07-01 21:39:00,
2013-07-01 17:49:00,73.9,73.6,29.96,SSE,150,3.0,9.0,99,0.00,-RA,,2.21,WeatherDisplay:10.37,2013-07-01 21:49:00,
2013-07-01 17:59:00,73.8,73.5,29.97,South,170,3.0,12.0,99,0.00,-RA,,2.21,WeatherDisplay:10.37,2013-07-01 21:59:00,
2013-07-01 18:09:00,73.8,73.5,29.97,South,182,2.0,9.0,99,0.00,OVC,,2.21,WeatherDisplay:10.37,2013-07-01 22:09:00,
2013-07-01 18:19:00,73.5,73.2,29.97,South,175,1.0,13.0,99,0.00,OVC,,2.21,WeatherDisplay:10.37,2013-07-01 22:19:00,
2013-07-01 18:29:00,73.4,73.1,29.97,SSE,159,2.0,8.0,99,0.00,OVC,,2.21,WeatherDisplay:10.37,2013-07-01 22:29:00,
2013-07-01 18:39:00,73.4,73.1,29.97,SSW,198,0.0,5.0,99,0.00,OVC,,2.21,WeatherDisplay:10.37,2013-07-01 22:39:00,
2013-07-01 18:49:00,73.3,73.3,29.98,SSE,164,2.0,8.0,100,0.00,OVC,,2.21,WeatherDisplay:10.37,2013-07-01 22:49:00,
2013-07-01 18:59:00,73.2,73.2,29.98,South,178,2.0,12.0,100,0.00,OVC,,2.21,WeatherDisplay:10.37,2013-07-01 22:59:00,
2013-07-01 19:09:00,73.2,73.2,29.98,South,186,5.0,6.0,100,0.00,,,2.21,WeatherDisplay:10.37,2013-07-01 23:09:00,
2013-07-01 19:19:00,73.3,73.3,29.98,South,170,1.0,7.0,100,0.00,,,2.21,WeatherDisplay:10.37,2013-07-01 23:19:00,
2013-07-01 19:29:00,73.2,73.2,29.99,South,176,1.0,6.0,100,0.00,,,2.21,WeatherDisplay:10.37,2013-07-01 23:29:00,
2013-07-01 19:39:00,73.2,73.2,29.99,South,179,1.0,6.0,100,0.00,,,2.21,WeatherDisplay:10.37,2013-07-01 23:39:00,
2013-07-01 19:49:00,73.1,73.1,30.00,SE,144,3.0,8.0,100,0.00,,,2.21,WeatherDisplay:10.37,2013-07-01 23:49:00,
2013-07-01 19:59:00,73.0,73.0,30.00,SSE,167,3.0,7.0,100,0.00,,,2.21,WeatherDisplay:10.37,2013-07-01 23:59:00,
2013-07-01 20:09:00,72.8,72.8,30.00,South,176,1.0,9.0,100,0.00,,,2.21,WeatherDisplay:10.37,2013-07-02 00:09:00,
2013-07-01 20:19:00,72.6,72.6,30.01,South,181,2.0,6.0,100,0.00,,,2.21,WeatherDisplay:10.37,2013-07-02 00:19:00,
2013-07-01 20:29:00,72.4,72.4,30.00,SE,145,2.0,6.0,100,0.00,,,2.21,WeatherDisplay:10.37,2013-07-02 00:29:00,
2013-07-01 20:39:00,72.3,72.3,30.01,SSE,162,2.0,6.0,100,0.00,,,2.21,WeatherDisplay:10.37,2013-07-02 00:39:00,
2013-07-01 20:49:00,72.1,72.1,30.01,South,182,0.0,6.0,100,0.00,,,2.21,WeatherDisplay:10.37,2013-07-02 00:49:00,
2013-07-01 20:59:00,72.1,72.1,30.01,South,180,0.0,5.0,100,0.00,,,2.21,WeatherDisplay:10.37,2013-07-02 00:59:00,
2013-07-01 21:09:00,72.1,72.1,30.01,SSE,167,1.0,6.0,100,0.00,,,2.21,WeatherDisplay:10.37,2013-07-02 01:09:00,
2013-07-01 21:19:00,72.1,72.1,30.01,SSE,165,0.0,6.0,100,0.00,,,2.21,WeatherDisplay:10.37,2013-07-02 01:19:00,
2013-07-01 21:29:00,72.0,72.0,30.01,South,179,1.0,5.0,100,0.00,,,2.21,WeatherDisplay:10.37,2013-07-02 01:29:00,
2013-07-01 21:39:00,71.9,71.9,30.02,South,187,1.0,5.0,100,0.00,,,2.21,WeatherDisplay:10.37,2013-07-02 01:39:00,
2013-07-01 21:49:00,71.9,71.9,30.02,South,182,0.0,4.0,100,0.00,,,2.21,WeatherDisplay:10.37,2013-07-02 01:49:00,
2013-07-01 21:59:00,71.9,71.9,30.02,South,177,0.0,6.0,100,0.00,,,2.21,WeatherDisplay:10.37,2013-07-02 01:59:00,
2013-07-01 22:09:00,71.9,71.9,30.02,South,175,1.0,5.0,100,0.00,,,2.21,WeatherDisplay:10.37,2013-07-02 02:09:00,
2013-07-01 22:19:00,71.9,71.9,30.02,SSE,147,2.0,5.0,100,0.00,,,2.21,WeatherDisplay:10.37,2013-07-02 02:19:00,
2013-07-01 22:29:00,71.9,71.9,30.02,South,189,2.0,3.0,100,0.00,,,2.21,WeatherDisplay:10.37,2013-07-02 02:29:00,
2013-07-01 22:39:00,72.0,72.0,30.03,SSE,148,1.0,5.0,100,0.00,,,2.21,WeatherDisplay:10.37,2013-07-02 02:39:00,
2013-07-01 22:49:00,72.0,72.0,30.03,South,178,0.0,8.0,100,0.00,,,2.21,WeatherDisplay:10.37,2013-07-02 02:49:00,
2013-07-01 22:59:00,72.0,72.0,30.03,South,181,1.0,6.0,100,0.00,,,2.21,WeatherDisplay:10.37,2013-07-02 02:59:00,
2013-07-01 23:09:00,72.0,72.0,30.03,SSW,213,0.0,4.0,100,0.00,,,2.21,WeatherDisplay:10.37,2013-07-02 03:09:00,
2013-07-01 23:19:00,72.0,72.0,30.03,South,179,1.0,5.0,100,0.00,,,2.21,WeatherDisplay:10.37,2013-07-02 03:19:00,
2013-07-01 23:29:00,71.9,71.9,30.03,South,186,0.0,5.0,100,0.00,,,2.21,WeatherDisplay:10.37,2013-07-02 03:29:00,
2013-07-01 23:39:00,71.9,71.9,30.03,SSE,167,1.0,7.0,100,0.00,,,2.21,WeatherDisplay:10.37,2013-07-02 03:39:00,
2013-07-01 23:49:00,71.9,71.9,30.04,South,176,2.0,6.0,100,0.00,,,2.21,WeatherDisplay:10.37,2013-07-02 03:49:00,
2013-07-01 23:59:00,71.9,71.9,30.04,South,169,0.0,4.0,100,0.00,RA,,0.00,WeatherDisplay:10.37,2013-07-02 03:59:00,